Time;durP1;ratioP1;P1;durP2;ratioP2;P2;SDS_P1;SDS_P2;PMS_P1;PMS_P2;Temp;Humidity;BMP_temperature;BMP_pressure;BME280_temperature;BME280_humidity;BME280_pressure;Samples;Min_cycle;Max_cycle;Signal;HPM_P1;HPM_P2
2021/10/09 00:00:38;;;;;;;;;;;;;;;20.95;58.74;103347.28;2075317;28;772;-58
2021/10/09 00:01:39;;;;;;;;;;;;;;;20.95;59.51;103345.47;2075197;28;986;-59
2021/10/09 00:02:39;;;;;;;;;;;;;;;20.95;59.01;103342.78;2075250;28;981;-58
2021/10/09 00:03:39;;;;;;;;;;;;;;;20.96;58.45;103347.25;2075207;28;847;-58
2021/10/09 00:04:39;;;;;;;;;;;;;;;20.94;58.98;103342.78;2075175;28;938;-58
2021/10/09 00:05:39;;;;;;;;;;;;;;;20.88;59.53;103346.34;2075268;28;840;-58
2021/10/09 00:06:40;;;;;;;;;;;;;;;20.92;59.70;103341.88;2075132;28;958;-58
2021/10/09 00:07:40;;;;;;;;;;;;;;;20.98;58.58;103347.28;2075192;28;820;-59
2021/10/09 00:08:41;;;;;;;;;;;;;;;20.94;58.83;103351.75;2075336;28;828;-58
2021/10/09 00:09:42;;;;;;;;;;;;;;;20.93;58.81;103351.75;2074833;28;1142;-59
2021/10/09 00:10:43;;;;;;;;;;;;;;;20.96;58.90;103354.47;2075116;28;791;-58
2021/10/09 00:11:43;;;;;;;;;;;;;;;20.93;58.72;103349.06;2075220;28;756;-58
2021/10/09 00:12:43;;;;;;;;;;;;;;;20.96;58.69;103351.78;2075180;28;1934;-58
2021/10/09 00:13:43;;;;;;;;;;;;;;;20.97;59.16;103350.88;2075092;28;1387;-58
2021/10/09 00:14:44;;;;;;;;;;;;;;;21.00;58.16;103351.78;2075257;28;771;-58
2021/10/09 00:15:44;;;;;;;;;;;;;;;20.99;59.41;103355.38;2075203;28;858;-58
2021/10/09 00:16:44;;;;;;;;;;;;;;;21.03;58.24;103353.59;2075244;28;965;-58
2021/10/09 00:17:44;;;;;;;;;;;;;;;21.02;57.80;103355.38;2075127;28;977;-58
2021/10/09 00:18:45;;;;;;;;;;;;;;;21.03;58.01;103356.31;2075215;28;961;-58
2021/10/09 00:19:45;;;;;;;;;;;;;;;20.98;58.30;103356.25;2075158;28;755;-58
2021/10/09 00:20:45;;;;;;;;;;;;;;;21.03;57.88;103350.91;2075176;28;838;-58
2021/10/09 00:21:45;;;;;;;;;;;;;;;21.03;58.86;103350.91;2075148;28;744;-58
2021/10/09 00:22:45;;;;;;;;;;;;;;;21.02;58.04;103349.09;2075146;28;784;-58
2021/10/09 00:23:46;;;;;;;;;;;;;;;21.06;58.35;103353.63;2074488;28;922;-58
2021/10/09 00:24:46;;;;;;;;;;;;;;;21.04;58.17;103355.41;2074619;28;846;-58
2021/10/09 00:25:46;;;;;;;;;;;;;;;21.09;57.37;103350.94;2075088;28;1001;-59
2021/10/09 00:26:47;;;;;;;;;;;;;;;21.07;58.69;103346.41;2075162;28;767;-58
2021/10/09 00:27:47;;;;;;;;;;;;;;;21.05;57.77;103354.50;2075122;28;827;-59
2021/10/09 00:28:47;;;;;;;;;;;;;;;21.09;58.49;103347.31;2074923;28;839;-58
2021/10/09 00:29:47;;;;;;;;;;;;;;;21.06;57.54;103350.91;2075086;28;1020;-58
2021/10/09 00:30:47;;;;;;;;;;;;;;;21.07;58.31;103351.81;2075139;28;770;-58
2021/10/09 00:31:48;;;;;;;;;;;;;;;21.05;57.46;103349.13;2074419;28;730;-58
2021/10/09 00:32:48;;;;;;;;;;;;;;;21.04;57.48;103347.31;2074449;28;1890;-58
2021/10/09 00:33:48;;;;;;;;;;;;;;;21.02;58.01;103347.28;2074952;28;798;-58
2021/10/09 00:34:49;;;;;;;;;;;;;;;21.01;57.98;103344.63;2075158;28;823;-58
2021/10/09 00:35:49;;;;;;;;;;;;;;;21.07;57.09;103347.34;2075061;28;687;-58
2021/10/09 00:36:49;;;;;;;;;;;;;;;21.02;58.10;103349.09;2074712;28;1440;-58
2021/10/09 00:37:49;;;;;;;;;;;;;;;21.03;57.46;103357.19;2075057;28;970;-58
2021/10/09 00:38:49;;;;;;;;;;;;;;;21.06;58.17;103350.00;2075059;28;764;-58
2021/10/09 00:39:49;;;;;;;;;;;;;;;21.07;57.30;103347.34;2075066;28;918;-58
2021/10/09 00:40:50;;;;;;;;;;;;;;;21.05;58.39;103349.13;2075045;28;831;-59
2021/10/09 00:41:50;;;;;;;;;;;;;;;21.08;57.58;103348.22;2074899;28;870;-58
2021/10/09 00:42:50;;;;;;;;;;;;;;;21.09;58.31;103350.94;2074965;28;1040;-58
2021/10/09 00:43:50;;;;;;;;;;;;;;;21.05;57.87;103349.13;2075026;28;831;-58
2021/10/09 00:44:51;;;;;;;;;;;;;;;21.04;58.01;103347.31;2075047;28;776;-59
2021/10/09 00:45:52;;;;;;;;;;;;;;;21.07;57.15;103344.63;2075064;28;961;-59
2021/10/09 00:46:56;;;;;;;;;;;;;;;21.03;57.44;103342.81;2075089;28;764;-59
2021/10/09 00:47:57;;;;;;;;;;;;;;;21.01;58.65;103344.63;2074840;28;969;-59
2021/10/09 00:48:57;;;;;;;;;;;;;;;21.02;57.74;103343.72;2075044;28;831;-59
2021/10/09 00:49:57;;;;;;;;;;;;;;;21.02;57.62;103338.31;2074998;28;893;-59
2021/10/09 00:50:57;;;;;;;;;;;;;;;21.01;57.21;103339.22;2074844;28;1326;-59
2021/10/09 00:52:03;;;;;;;;;;;;;;;21.01;57.68;103333.84;2075248;28;1045;-59
2021/10/09 00:53:03;;;;;;;;;;;;;;;20.99;57.52;103339.19;2076495;28;1902;-59
2021/10/09 00:54:03;;;;;;;;;;;;;;;21.03;57.38;103334.75;2076658;28;772;-59
2021/10/09 00:55:05;;;;;;;;;;;;;;;21.01;58.48;103334.72;2076828;28;827;-59
2021/10/09 00:56:06;;;;;;;;;;;;;;;21.00;57.83;103334.72;2076573;28;814;-59
2021/10/09 00:57:07;;;;;;;;;;;;;;;21.00;58.07;103337.41;2076751;28;902;-59
2021/10/09 00:58:08;;;;;;;;;;;;;;;20.96;58.32;103338.31;2076678;28;855;-59
2021/10/09 00:59:12;;;;;;;;;;;;;;;21.02;57.47;103335.63;2076668;28;973;-58
2021/10/09 01:00:12;;;;;;;;;;;;;;;21.01;58.55;103331.13;2076642;28;977;-58
2021/10/09 01:01:13;;;;;;;;;;;;;;;20.97;58.67;103337.41;2076619;28;842;-58
2021/10/09 01:02:13;;;;;;;;;;;;;;;21.03;58.22;103334.75;2076628;28;1009;-57
2021/10/09 01:03:13;;;;;;;;;;;;;;;21.05;58.91;103338.34;2076590;28;890;-57
2021/10/09 01:04:14;;;;;;;;;;;;;;;21.06;58.48;103337.44;2076052;28;1338;-56
2021/10/09 01:05:14;;;;;;;;;;;;;;;21.09;58.33;103340.16;2076572;28;1001;-56
2021/10/09 01:06:14;;;;;;;;;;;;;;;21.09;58.37;103333.84;2076657;28;961;-56
2021/10/09 01:07:15;;;;;;;;;;;;;;;21.11;58.47;103332.97;2076622;28;858;-57
2021/10/09 01:08:15;;;;;;;;;;;;;;;21.12;57.85;103329.38;2076618;28;776;-57
2021/10/09 01:09:15;;;;;;;;;;;;;;;21.11;57.74;103332.97;2076462;28;1025;-57
2021/10/09 01:10:15;;;;;;;;;;;;;;;21.09;58.66;103328.47;2076425;28;1207;-57
2021/10/09 01:11:15;;;;;;;;;;;;;;;21.10;58.88;103328.47;2076548;28;1208;-57
2021/10/09 01:12:16;;;;;;;;;;;;;;;21.10;56.84;103324.88;2076491;28;1967;-57
2021/10/09 01:13:16;;;;;;;;;;;;;;;21.11;57.47;103326.66;2076536;28;842;-56
2021/10/09 01:14:16;;;;;;;;;;;;;;;21.07;57.84;103322.16;2076438;28;1036;-57
2021/10/09 01:15:24;;;;;;;;;;;;;;;21.06;58.48;103313.19;2076433;28;827;-57
2021/10/09 01:16:25;;;;;;;;;;;;;;;21.08;58.00;103322.19;2076463;28;799;-58
2021/10/09 01:17:26;;;;;;;;;;;;;;;21.08;57.45;103313.19;2076436;28;1041;-57
2021/10/09 01:18:26;;;;;;;;;;;;;;;21.11;57.73;103310.50;2076535;28;780;-57
2021/10/09 01:19:26;;;;;;;;;;;;;;;21.11;57.16;103315.88;2076212;28;772;-57
2021/10/09 01:20:26;;;;;;;;;;;;;;;21.06;57.59;103320.38;2076495;28;804;-57
2021/10/09 01:21:36;;;;;;;;;;;;;;;21.06;58.42;103315.88;2076438;28;857;-57
2021/10/09 01:22:36;;;;;;;;;;;;;;;21.07;57.54;103314.06;2076488;28;992;-57
2021/10/09 01:23:36;;;;;;;;;;;;;;;21.09;57.51;103315.91;2076562;28;885;-57
2021/10/09 01:24:37;;;;;;;;;;;;;;;21.03;58.46;103315.88;2076286;28;844;-57
2021/10/09 01:25:37;;;;;;;;;;;;;;;21.05;57.58;103308.69;2075735;28;1156;-57
2021/10/09 01:26:37;;;;;;;;;;;;;;;21.07;57.35;103309.59;2075805;28;1025;-57
2021/10/09 01:27:39;;;;;;;;;;;;;;;21.06;57.36;103307.81;2084078;28;924;-57
2021/10/09 01:28:40;;;;;;;;;;;;;;;21.06;57.56;103310.50;2076351;28;1317;-57
2021/10/09 01:29:41;;;;;;;;;;;;;;;21.02;58.13;103312.25;2076422;28;735;-57
2021/10/09 01:30:41;;;;;;;;;;;;;;;21.04;57.42;103304.19;2076487;28;749;-57
2021/10/09 01:31:41;;;;;;;;;;;;;;;21.06;57.42;103309.59;2076348;28;989;-57
2021/10/09 01:32:42;;;;;;;;;;;;;;;21.07;57.10;103311.38;2076185;28;1942;-57
2021/10/09 01:33:42;;;;;;;;;;;;;;;21.05;57.79;103306.00;2076333;28;962;-57
2021/10/09 01:34:42;;;;;;;;;;;;;;;21.03;57.89;103310.47;2076398;28;1067;-57
2021/10/09 01:35:50;;;;;;;;;;;;;;;21.07;57.17;103297.91;2076073;28;1048;-57
2021/10/09 01:36:50;;;;;;;;;;;;;;;21.00;58.75;103307.78;2076314;28;1166;-57
2021/10/09 01:37:50;;;;;;;;;;;;;;;20.96;58.60;103301.47;2076232;28;997;-57
2021/10/09 01:38:51;;;;;;;;;;;;;;;20.94;57.73;103303.25;2076165;28;970;-57
2021/10/09 01:39:51;;;;;;;;;;;;;;;21.02;58.29;103306.00;2076336;28;819;-58
2021/10/09 01:40:52;;;;;;;;;;;;;;;20.98;58.01;103299.66;2076334;28;853;-57
2021/10/09 01:41:52;;;;;;;;;;;;;;;20.96;57.94;103295.19;2076014;28;969;-57
2021/10/09 01:42:52;;;;;;;;;;;;;;;20.98;58.50;103302.38;2076335;28;808;-57
2021/10/09 01:43:53;;;;;;;;;;;;;;;20.98;58.13;103294.28;2076268;28;986;-57
2021/10/09 01:44:53;;;;;;;;;;;;;;;21.01;58.23;103298.81;2076353;28;923;-57
2021/10/09 01:45:53;;;;;;;;;;;;;;;21.00;57.58;103297.88;2076314;28;954;-58
2021/10/09 01:46:54;;;;;;;;;;;;;;;21.00;58.47;103299.69;2076288;28;823;-57
2021/10/09 01:47:54;;;;;;;;;;;;;;;20.98;57.15;103299.66;2076330;28;983;-57
2021/10/09 01:48:54;;;;;;;;;;;;;;;20.98;58.41;103296.97;2076240;28;855;-57
2021/10/09 01:49:54;;;;;;;;;;;;;;;20.92;59.08;103298.75;2075941;28;945;-57
2021/10/09 01:50:54;;;;;;;;;;;;;;;20.94;58.60;103300.56;2076253;28;989;-57
2021/10/09 01:51:54;;;;;;;;;;;;;;;20.94;58.46;103297.84;2076231;28;824;-57
2021/10/09 01:52:54;;;;;;;;;;;;;;;20.93;58.05;103295.19;2076189;28;1871;-57
2021/10/09 01:53:55;;;;;;;;;;;;;;;20.93;58.43;103298.75;2076256;28;986;-57
2021/10/09 01:54:55;;;;;;;;;;;;;;;20.91;58.43;103291.56;2076194;28;973;-57
2021/10/09 01:55:55;;;;;;;;;;;;;;;20.90;58.86;103301.47;2076226;28;827;-57
2021/10/09 01:56:55;;;;;;;;;;;;;;;20.90;58.46;103295.16;2075518;28;749;-57
2021/10/09 01:57:55;;;;;;;;;;;;;;;20.88;59.42;103296.06;2075365;28;863;-57
2021/10/09 01:58:56;;;;;;;;;;;;;;;20.91;57.99;103294.25;2076194;28;966;-57
2021/10/09 01:59:56;;;;;;;;;;;;;;;20.91;59.09;103296.97;2075536;28;2344;-58
2021/10/09 02:00:56;;;;;;;;;;;;;;;20.91;58.41;103302.34;2076221;28;981;-57
2021/10/09 02:01:57;;;;;;;;;;;;;;;20.92;58.35;103299.66;2076084;28;1059;-57
2021/10/09 02:03:02;;;;;;;;;;;;;;;20.92;58.73;103298.75;2075914;28;755;-57
2021/10/09 02:04:03;;;;;;;;;;;;;;;20.91;58.64;103299.66;2076185;28;878;-57
2021/10/09 02:05:03;;;;;;;;;;;;;;;20.93;58.35;103304.13;2076168;28;902;-57
2021/10/09 02:06:04;;;;;;;;;;;;;;;20.92;58.31;103301.47;2076105;28;990;-57
2021/10/09 02:07:04;;;;;;;;;;;;;;;20.88;58.59;103301.44;2076203;28;807;-57
2021/10/09 02:08:04;;;;;;;;;;;;;;;20.91;58.37;103295.16;2075982;28;1239;-57
2021/10/09 02:09:05;;;;;;;;;;;;;;;20.88;58.99;103293.34;2076202;28;810;-57
2021/10/09 02:10:05;;;;;;;;;;;;;;;20.84;58.78;103296.94;2075986;28;1166;-57
2021/10/09 02:11:08;;;;;;;;;;;;;;;20.86;59.02;103294.25;2076096;28;1149;-57
2021/10/09 02:12:09;;;;;;;;;;;;;;;20.87;58.21;103296.06;2076126;28;846;-58
2021/10/09 02:13:10;;;;;;;;;;;;;;;20.90;59.03;103298.78;2076048;28;1910;-57
2021/10/09 02:14:21;;;;;;;;;;;;;;;20.96;57.70;103295.19;2075963;28;1091;-57
2021/10/09 02:18:20;;;;;;;;;;;;;;;20.84;57.98;103296.06;2076093;28;663;-57
2021/10/09 02:25:27;;;;;;;;;;;;;;;20.81;59.09;103291.53;2058900;28;1191;-58
2021/10/09 02:26:27;;;;;;;;;;;;;;;20.88;59.30;103293.34;2058955;28;985;-58
2021/10/09 02:27:27;;;;;;;;;;;;;;;20.90;58.17;103287.06;2058913;28;989;-58
2021/10/09 02:28:27;;;;;;;;;;;;;;;20.85;59.46;103293.34;2058793;28;1025;-58
2021/10/09 02:29:27;;;;;;;;;;;;;;;20.82;58.25;103287.94;2058867;28;783;-58
2021/10/09 02:30:28;;;;;;;;;;;;;;;20.85;59.06;103297.84;2058876;28;1115;-59
2021/10/09 02:31:28;;;;;;;;;;;;;;;20.83;59.03;103294.25;2058879;28;911;-58
2021/10/09 02:32:28;;;;;;;;;;;;;;;20.84;58.21;103294.25;2058858;28;1890;-58
2021/10/09 02:33:29;;;;;;;;;;;;;;;20.82;58.88;103297.84;2058702;28;1004;-58
2021/10/09 02:34:29;;;;;;;;;;;;;;;20.83;58.71;103295.13;2058816;28;845;-58
2021/10/09 02:35:29;;;;;;;;;;;;;;;20.84;58.24;103293.34;2058779;28;1041;-58
2021/10/09 02:36:29;;;;;;;;;;;;;;;20.88;58.10;103292.47;2058464;28;1513;-58
2021/10/09 02:37:29;;;;;;;;;;;;;;;20.83;59.60;103289.75;2058803;28;1048;-58
2021/10/09 02:38:30;;;;;;;;;;;;;;;20.86;58.08;103297.84;2058856;28;783;-58
2021/10/09 02:39:30;;;;;;;;;;;;;;;20.88;58.12;103292.47;2058415;28;1060;-58
2021/10/09 02:40:30;;;;;;;;;;;;;;;20.86;58.96;103297.84;2058889;28;1021;-58
2021/10/09 02:41:31;;;;;;;;;;;;;;;20.90;58.46;103295.16;2058816;28;860;-58
2021/10/09 02:42:31;;;;;;;;;;;;;;;20.89;57.99;103294.28;2058579;28;1009;-58
2021/10/09 02:43:31;;;;;;;;;;;;;;;20.92;57.49;103299.66;2058742;28;1079;-58
2021/10/09 02:44:31;;;;;;;;;;;;;;;20.94;57.70;103299.66;2058797;28;1311;-58
2021/10/09 02:45:31;;;;;;;;;;;;;;;20.89;58.50;103294.28;2058740;28;905;-58
2021/10/09 02:46:32;;;;;;;;;;;;;;;20.85;58.45;103296.03;2058860;28;970;-58
2021/10/09 02:47:32;;;;;;;;;;;;;;;20.83;59.42;103289.75;2058698;28;835;-59
2021/10/09 02:48:32;;;;;;;;;;;;;;;20.84;58.68;103296.94;2058867;28;803;-58
2021/10/09 02:49:32;;;;;;;;;;;;;;;20.87;59.26;103290.69;2058699;28;875;-58
2021/10/09 02:50:33;;;;;;;;;;;;;;;20.84;58.83;103291.53;2058683;28;997;-58
2021/10/09 02:51:33;;;;;;;;;;;;;;;20.90;58.42;103295.16;2058735;28;997;-58
2021/10/09 02:52:34;;;;;;;;;;;;;;;20.85;58.74;103290.66;2063604;28;1898;-58
2021/10/09 02:53:34;;;;;;;;;;;;;;;20.91;57.77;103299.66;2066606;28;855;-58
2021/10/09 02:54:34;;;;;;;;;;;;;;;20.92;57.58;103299.66;2066757;28;1177;-58
2021/10/09 02:55:35;;;;;;;;;;;;;;;20.84;59.06;103296.06;2066698;28;895;-58
2021/10/09 02:56:35;;;;;;;;;;;;;;;20.95;57.99;103288.00;2070061;28;909;-58
2021/10/09 02:57:38;;;;;;;;;;;;;;;20.94;57.74;103296.97;2075782;28;1231;-58
2021/10/09 02:58:38;;;;;;;;;;;;;;;20.92;57.67;103294.25;2075732;28;855;-58
2021/10/09 02:59:38;;;;;;;;;;;;;;;20.93;57.75;103295.19;2075723;28;847;-58
2021/10/09 03:00:38;;;;;;;;;;;;;;;20.92;58.03;103296.06;2075789;28;870;-58
2021/10/09 03:01:38;;;;;;;;;;;;;;;20.98;58.06;103293.41;2075568;28;846;-58
2021/10/09 03:02:39;;;;;;;;;;;;;;;20.99;56.89;103298.78;2075704;28;801;-58
2021/10/09 03:03:39;;;;;;;;;;;;;;;20.96;57.32;103290.69;2075742;28;931;-58
2021/10/09 03:04:39;;;;;;;;;;;;;;;20.96;57.73;103287.09;2075734;28;1013;-58
2021/10/09 03:05:39;;;;;;;;;;;;;;;20.95;57.71;103288.88;2075687;28;867;-58
2021/10/09 03:06:39;;;;;;;;;;;;;;;20.94;58.28;103284.38;2075561;28;851;-58
2021/10/09 03:07:39;;;;;;;;;;;;;;;20.94;58.27;103283.50;2075643;28;1048;-58
2021/10/09 03:08:40;;;;;;;;;;;;;;;21.00;57.43;103284.41;2075683;28;864;-58
2021/10/09 03:09:40;;;;;;;;;;;;;;;20.99;57.53;103290.69;2075403;28;1083;-58
2021/10/09 03:10:40;;;;;;;;;;;;;;;20.98;57.69;103288.91;2075665;28;1228;-58
2021/10/09 03:11:40;;;;;;;;;;;;;;;20.95;57.64;103285.31;2075502;28;1024;-59
2021/10/09 03:12:41;;;;;;;;;;;;;;;20.93;57.50;103285.28;2075607;28;1910;-58
2021/10/09 03:13:41;;;;;;;;;;;;;;;20.94;58.22;103281.69;2075642;28;878;-58
2021/10/09 03:14:41;;;;;;;;;;;;;;;20.94;58.06;103292.47;2074541;28;949;-58
2021/10/09 03:15:41;;;;;;;;;;;;;;;20.95;57.90;103296.97;2074906;28;803;-58
2021/10/09 03:16:41;;;;;;;;;;;;;;;20.98;57.89;103290.69;2075496;28;930;-58
2021/10/09 03:17:42;;;;;;;;;;;;;;;20.99;57.82;103285.31;2075480;28;1005;-58
2021/10/09 03:18:42;;;;;;;;;;;;;;;20.97;57.83;103286.22;2075587;28;776;-58
2021/10/09 03:19:42;;;;;;;;;;;;;;;21.01;56.90;103288.03;2075605;28;993;-58
2021/10/09 03:20:43;;;;;;;;;;;;;;;21.01;57.80;103294.28;2075592;28;768;-58
2021/10/09 03:21:43;;;;;;;;;;;;;;;21.02;56.96;103292.53;2075579;28;823;-58
2021/10/09 03:22:45;;;;;;;;;;;;;;;20.99;57.95;103296.09;2075505;28;859;-58
2021/10/09 03:23:45;;;;;;;;;;;;;;;20.99;57.55;103288.00;2075598;28;902;-58
2021/10/09 03:24:45;;;;;;;;;;;;;;;21.01;57.07;103290.72;2075491;28;989;-58
2021/10/09 03:25:45;;;;;;;;;;;;;;;21.01;57.58;103288.03;2075501;28;859;-58
2021/10/09 03:26:45;;;;;;;;;;;;;;;21.05;56.42;103292.53;2075399;28;856;-58
2021/10/09 03:27:46;;;;;;;;;;;;;;;21.03;57.03;103287.13;2075394;28;1037;-58
2021/10/09 03:28:46;;;;;;;;;;;;;;;21.04;57.57;103285.34;2075339;28;772;-58
2021/10/09 03:29:47;;;;;;;;;;;;;;;21.03;58.11;103286.22;2075427;28;1036;-58
2021/10/09 03:30:47;;;;;;;;;;;;;;;21.05;56.75;103291.59;2075447;28;986;-58
2021/10/09 03:31:47;;;;;;;;;;;;;;;21.01;57.35;103290.72;2075360;28;764;-58
2021/10/09 03:32:47;;;;;;;;;;;;;;;20.99;57.16;103293.38;2075346;28;1895;-58
2021/10/09 03:33:47;;;;;;;;;;;;;;;20.97;57.37;103289.78;2075376;28;970;-58
2021/10/09 03:34:47;;;;;;;;;;;;;;;20.97;57.50;103289.78;2075285;28;781;-58
2021/10/09 03:35:47;;;;;;;;;;;;;;;20.97;57.00;103289.78;2075370;28;871;-58
2021/10/09 03:36:48;;;;;;;;;;;;;;;21.02;57.64;103285.31;2075351;28;1194;-58
2021/10/09 03:37:48;;;;;;;;;;;;;;;21.03;56.94;103286.22;2075353;28;839;-58
2021/10/09 03:38:48;;;;;;;;;;;;;;;20.98;58.07;103288.00;2075439;28;1014;-58
2021/10/09 03:39:50;;;;;;;;;;;;;;;21.00;57.32;103286.22;2075317;28;803;-58
2021/10/09 03:40:57;;;;;;;;;;;;;;;21.01;58.05;103290.72;2075544;28;835;-58
2021/10/09 03:42:03;;;;;;;;;;;;;;;20.98;57.69;103293.41;2075389;28;827;-58
2021/10/09 03:43:10;;;;;;;;;;;;;;;20.95;58.13;103288.88;2075423;28;781;-58
2021/10/09 03:44:11;;;;;;;;;;;;;;;20.95;57.64;103288.00;2075401;28;878;-58
2021/10/09 03:46:28;;;;;;;;;;;;;;;20.91;57.83;103286.19;2075444;28;946;-58
2021/10/09 03:50:07;;;;;;;;;;;;;;;20.95;57.83;103288.00;2075375;28;645;-58
2021/10/09 03:53:26;;;;;;;;;;;;;;;20.92;57.63;103290.69;2075365;28;659;-58
2021/10/09 03:54:27;;;;;;;;;;;;;;;20.86;58.92;103286.19;2075377;28;973;-58
2021/10/09 03:55:27;;;;;;;;;;;;;;;20.89;58.19;103288.88;2075314;28;831;-58
2021/10/09 03:56:27;;;;;;;;;;;;;;;20.83;58.48;103286.16;2075084;28;969;-58
2021/10/09 03:57:27;;;;;;;;;;;;;;;20.84;58.07;103288.84;2075262;28;834;-58
2021/10/09 03:58:27;;;;;;;;;;;;;;;20.84;59.19;103286.16;2075362;28;850;-58
2021/10/09 03:59:28;;;;;;;;;;;;;;;20.83;59.16;103283.47;2075099;28;819;-58
2021/10/09 04:00:28;;;;;;;;;;;;;;;20.81;58.76;103278.06;2074609;28;977;-58
2021/10/09 04:01:28;;;;;;;;;;;;;;;20.86;57.91;103287.06;2074719;28;839;-58
2021/10/09 04:02:28;;;;;;;;;;;;;;;20.86;57.88;103283.50;2075283;28;863;-58
2021/10/09 04:03:28;;;;;;;;;;;;;;;21.07;57.78;103279.03;2075227;28;787;-58
2021/10/09 04:04:29;;;;;;;;;;;;;;;21.60;57.33;103283.63;2075133;28;933;-58
2021/10/09 04:05:29;;;;;;;;;;;;;;;21.83;55.43;103281.88;2075255;28;798;-58
2021/10/09 04:06:30;;;;;;;;;;;;;;;21.90;55.08;103280.97;2075213;28;826;-58
2021/10/09 04:07:30;;;;;;;;;;;;;;;21.97;54.88;103277.38;2075148;28;701;-58
2021/10/09 04:08:30;;;;;;;;;;;;;;;22.03;54.74;103282.75;2075242;28;762;-58
2021/10/09 04:09:30;;;;;;;;;;;;;;;22.02;55.51;103277.38;2074887;28;1100;-58
2021/10/09 04:10:30;;;;;;;;;;;;;;;22.11;54.47;103288.13;2075048;28;973;-58
2021/10/09 04:11:30;;;;;;;;;;;;;;;22.14;55.29;103280.03;2074957;28;1160;-58
2021/10/09 04:12:31;;;;;;;;;;;;;;;22.21;54.68;103280.94;2075047;28;1967;-58
2021/10/09 04:13:31;;;;;;;;;;;;;;;22.24;54.23;103282.72;2075208;28;1024;-59
2021/10/09 04:14:31;;;;;;;;;;;;;;;22.29;54.32;103283.63;2075072;28;1512;-58
2021/10/09 04:15:31;;;;;;;;;;;;;;;22.29;54.08;103283.63;2074999;28;883;-58
2021/10/09 04:16:31;;;;;;;;;;;;;;;22.33;54.36;103280.91;2075103;28;779;-58
2021/10/09 04:17:32;;;;;;;;;;;;;;;22.36;54.32;103280.00;2075211;28;930;-59
2021/10/09 04:18:32;;;;;;;;;;;;;;;22.39;53.90;103285.41;2075201;28;1017;-58
2021/10/09 04:19:32;;;;;;;;;;;;;;;22.39;53.99;103280.00;2075077;28;1017;-58
2021/10/09 04:20:33;;;;;;;;;;;;;;;22.40;53.73;103284.50;2075092;28;993;-58
2021/10/09 04:21:34;;;;;;;;;;;;;;;22.41;54.24;103277.28;2075089;28;709;-58
2021/10/09 04:22:34;;;;;;;;;;;;;;;22.41;54.71;103275.50;2075159;28;788;-58
2021/10/09 04:23:34;;;;;;;;;;;;;;;22.44;53.94;103277.31;2075060;28;995;-58
2021/10/09 04:24:34;;;;;;;;;;;;;;;22.47;53.53;103277.28;2075174;28;985;-58
2021/10/09 04:25:34;;;;;;;;;;;;;;;22.46;53.62;103273.72;2075172;28;794;-58
2021/10/09 04:26:34;;;;;;;;;;;;;;;22.47;53.70;103275.50;2074342;28;1033;-58
2021/10/09 04:27:35;;;;;;;;;;;;;;;22.47;54.39;103270.09;2074277;28;800;-58
2021/10/09 04:28:35;;;;;;;;;;;;;;;22.49;54.72;103270.09;2074394;28;795;-58
2021/10/09 04:29:35;;;;;;;;;;;;;;;22.52;53.71;103274.59;2074987;28;866;-58
2021/10/09 04:30:35;;;;;;;;;;;;;;;22.52;53.24;103269.19;2075090;28;874;-58
2021/10/09 04:31:36;;;;;;;;;;;;;;;22.54;52.82;103270.09;2074511;28;1325;-58
2021/10/09 04:32:36;;;;;;;;;;;;;;;22.49;53.55;103268.31;2074485;28;1883;-58
2021/10/09 04:33:36;;;;;;;;;;;;;;;22.50;53.76;103267.41;2075088;28;886;-58
2021/10/09 04:34:36;;;;;;;;;;;;;;;22.52;54.23;103267.38;2075063;28;985;-58
2021/10/09 04:35:36;;;;;;;;;;;;;;;22.55;53.23;103261.97;2075065;28;776;-58
2021/10/09 04:36:37;;;;;;;;;;;;;;;22.54;54.10;103265.56;2074938;28;1415;-58
2021/10/09 04:37:37;;;;;;;;;;;;;;;22.52;54.13;103264.66;2075114;28;866;-58
2021/10/09 04:38:37;;;;;;;;;;;;;;;22.58;54.09;103267.34;2075131;28;1017;-58
2021/10/09 04:39:37;;;;;;;;;;;;;;;22.57;53.21;103259.28;2075056;28;925;-58
2021/10/09 04:40:38;;;;;;;;;;;;;;;22.59;53.80;103258.34;2075088;28;840;-58
2021/10/09 04:41:38;;;;;;;;;;;;;;;22.59;54.26;103262.88;2075006;28;787;-58
2021/10/09 04:42:38;;;;;;;;;;;;;;;22.58;53.79;103259.25;2075078;28;985;-58
2021/10/09 04:43:38;;;;;;;;;;;;;;;22.61;53.64;103253.84;2075047;28;764;-59
2021/10/09 04:44:38;;;;;;;;;;;;;;;22.59;54.22;103258.34;2074651;28;1094;-58
2021/10/09 04:45:39;;;;;;;;;;;;;;;22.58;54.10;103252.97;2074996;28;990;-58
2021/10/09 04:46:39;;;;;;;;;;;;;;;22.57;54.10;103254.75;2075162;28;775;-58
2021/10/09 04:47:39;;;;;;;;;;;;;;;22.61;53.88;103256.53;2074826;28;985;-60
2021/10/09 04:48:39;;;;;;;;;;;;;;;22.60;53.32;103260.16;2075045;28;853;-58
2021/10/09 04:49:39;;;;;;;;;;;;;;;22.65;54.03;103254.75;2075033;28;977;-58
2021/10/09 04:50:40;;;;;;;;;;;;;;;22.65;53.77;103260.16;2074861;28;1137;-58
2021/10/09 04:51:40;;;;;;;;;;;;;;;22.62;54.40;103255.63;2075022;28;831;-58
2021/10/09 04:52:40;;;;;;;;;;;;;;;22.62;53.63;103254.75;2074943;28;1878;-58
2021/10/09 04:53:40;;;;;;;;;;;;;;;22.62;54.03;103255.63;2074792;28;1036;-58
2021/10/09 04:54:41;;;;;;;;;;;;;;;22.63;54.14;103254.72;2075019;28;768;-58
2021/10/09 04:55:41;;;;;;;;;;;;;;;22.63;54.79;103252.03;2074968;28;910;-58
2021/10/09 04:56:41;;;;;;;;;;;;;;;22.63;53.95;103252.03;2074923;28;993;-58
2021/10/09 04:57:41;;;;;;;;;;;;;;;22.65;53.99;103252.03;2074917;28;951;-58
2021/10/09 04:58:41;;;;;;;;;;;;;;;22.67;54.64;103250.19;2074758;28;760;-58
2021/10/09 04:59:41;;;;;;;;;;;;;;;22.67;53.03;103244.78;2074812;28;803;-58
2021/10/09 05:00:41;;;;;;;;;;;;;;;22.65;54.76;103250.22;2075013;28;1013;-59
2021/10/09 05:01:42;;;;;;;;;;;;;;;22.67;53.90;103249.31;2074980;28;873;-58
2021/10/09 05:02:42;;;;;;;;;;;;;;;22.67;54.61;103243.91;2075015;28;772;-58
2021/10/09 05:03:42;;;;;;;;;;;;;;;22.65;54.31;103247.53;2074795;28;1606;-58
2021/10/09 05:04:42;;;;;;;;;;;;;;;22.70;53.62;103252.00;2075017;28;787;-58
2021/10/09 05:05:42;;;;;;;;;;;;;;;22.68;54.10;103245.72;2074944;28;969;-58
2021/10/09 05:06:43;;;;;;;;;;;;;;;22.70;53.91;103249.31;2075060;28;772;-58
2021/10/09 05:07:43;;;;;;;;;;;;;;;22.73;53.88;103241.19;2074997;28;965;-58
2021/10/09 05:08:43;;;;;;;;;;;;;;;22.69;54.89;103240.28;2074882;28;1016;-58
2021/10/09 05:09:43;;;;;;;;;;;;;;;22.70;54.86;103236.69;2074534;28;1199;-58
2021/10/09 05:10:44;;;;;;;;;;;;;;;22.74;53.31;103238.47;2075024;28;1200;-58
2021/10/09 05:11:44;;;;;;;;;;;;;;;22.74;54.57;103245.69;2074360;28;1453;-58
2021/10/09 05:12:44;;;;;;;;;;;;;;;22.77;53.13;103245.66;2074394;28;1981;-58
2021/10/09 05:13:44;;;;;;;;;;;;;;;22.73;54.35;103246.59;2074939;28;908;-58
2021/10/09 05:14:45;;;;;;;;;;;;;;;22.77;53.75;103242.97;2075088;28;767;-58
2021/10/09 05:15:46;;;;;;;;;;;;;;;22.74;53.76;103243.88;2074913;28;823;-58
2021/10/09 05:16:46;;;;;;;;;;;;;;;22.75;53.60;103248.38;2074936;28;977;-58
2021/10/09 05:17:46;;;;;;;;;;;;;;;22.75;53.45;103239.38;2074916;28;973;-58
2021/10/09 05:18:46;;;;;;;;;;;;;;;22.77;52.99;103238.44;2074940;28;1048;-58
2021/10/09 05:19:46;;;;;;;;;;;;;;;22.82;53.40;103241.16;2074550;28;1056;-58
2021/10/09 05:20:46;;;;;;;;;;;;;;;22.84;53.10;103244.75;2075056;28;706;-58
2021/10/09 05:21:47;;;;;;;;;;;;;;;22.77;54.45;103243.84;2074907;28;804;-58
2021/10/09 05:22:47;;;;;;;;;;;;;;;22.78;53.55;103247.47;2074961;28;923;-59
2021/10/09 05:23:47;;;;;;;;;;;;;;;22.79;53.14;103241.16;2074907;28;942;-58
2021/10/09 05:24:50;;;;;;;;;;;;;;;22.79;52.75;103244.75;2074951;28;715;-58
2021/10/09 05:25:50;;;;;;;;;;;;;;;22.76;53.54;103247.47;2074855;28;851;-58
2021/10/09 05:26:50;;;;;;;;;;;;;;;22.80;53.06;103242.97;2074956;28;970;-59
2021/10/09 05:27:58;;;;;;;;;;;;;;;22.82;53.10;103246.56;2074881;28;783;-58
2021/10/09 05:28:58;;;;;;;;;;;;;;;22.79;54.05;103236.63;2074835;28;1469;-58
2021/10/09 05:30:04;;;;;;;;;;;;;;;22.83;52.69;103237.53;2074616;28;768;-58
2021/10/09 05:31:05;;;;;;;;;;;;;;;22.84;52.81;103242.03;2075047;28;855;-59
2021/10/09 05:32:07;;;;;;;;;;;;;;;22.83;53.68;103242.03;2074827;28;848;-58
2021/10/09 05:34:13;;;;;;;;;;;;;;;22.81;52.56;103242.06;2075030;28;1132;-58
2021/10/09 05:35:13;;;;;;;;;;;;;;;22.80;53.63;103240.25;2074900;28;776;-58